DLH6LW ESGG-EDDF
Flight info
| Callsign | DLH6LW |
|---|---|
| Flight time | N/A |
| Altitude | 37000 |
| Route | TOPLA L996 ERNOV DCT NIKDA/N0426F380 DCT NOBRI DCT BUMIL DCT HLZ DCT RIMET/N0403F310 T157 KOKEB/N0350F230 T157 KERAX KERAX5A |
| Aircraft | A20N/M-SDE2E3FGHIRWXY/LB1 |
Departure
| Time | N/A |
|---|---|
| Airport | Göteborg Landvetter Airport (ESGG) |
Arrival
| Time | 2026-05-03 20:50 |
|---|---|
| Airport | Frankfurt Main Airport (EDDF) |
| Time | Latitude | Longitude | Altitude | Speed | Heading |
|---|---|---|---|---|---|
| 2026-05-03 20:15 | 52.35293 | 10.78863 | 36941 ft | 431 kts | 202° |
| 2026-05-03 20:15 | 52.29634 | 10.75610 | 36942 ft | 431 kts | 201° |
| 2026-05-03 20:16 | 52.23966 | 10.72439 | 36944 ft | 430 kts | 201° |
| 2026-05-03 20:16 | 52.18319 | 10.69243 | 36941 ft | 430 kts | 201° |
| 2026-05-03 20:17 | 52.12663 | 10.66035 | 36937 ft | 430 kts | 201° |
| 2026-05-03 20:17 | 52.07019 | 10.62840 | 36935 ft | 430 kts | 201° |
| 2026-05-03 20:18 | 52.01364 | 10.59649 | 36931 ft | 430 kts | 201° |
| 2026-05-03 20:18 | 51.95713 | 10.56468 | 36933 ft | 430 kts | 201° |
| 2026-05-03 20:19 | 51.90066 | 10.53299 | 36938 ft | 430 kts | 201° |
| 2026-05-03 20:19 | 51.84410 | 10.50132 | 36940 ft | 430 kts | 201° |
| 2026-05-03 20:20 | 51.78751 | 10.46973 | 36946 ft | 431 kts | 200° |
| 2026-05-03 20:20 | 51.73082 | 10.43817 | 36922 ft | 429 kts | 200° |
| 2026-05-03 20:20 | 51.70273 | 10.42257 | 36593 ft | 426 kts | 200° |
| 2026-05-03 20:21 | 51.67473 | 10.40703 | 35990 ft | 424 kts | 200° |
| 2026-05-03 20:21 | 51.64718 | 10.39176 | 35283 ft | 423 kts | 200° |
| 2026-05-03 20:21 | 51.61936 | 10.37635 | 34529 ft | 423 kts | 200° |
| 2026-05-03 20:21 | 51.59158 | 10.36099 | 33741 ft | 422 kts | 200° |
| 2026-05-03 20:22 | 51.56376 | 10.34563 | 32759 ft | 423 kts | 200° |
| 2026-05-03 20:22 | 51.53574 | 10.33018 | 31719 ft | 427 kts | 200° |
| 2026-05-03 20:22 | 51.50754 | 10.31465 | 30706 ft | 430 kts | 200° |
| 2026-05-03 20:22 | 51.47936 | 10.29916 | 30019 ft | 426 kts | 200° |
| 2026-05-03 20:23 | 51.45155 | 10.28391 | 29286 ft | 420 kts | 200° |
| 2026-05-03 20:23 | 51.42407 | 10.26885 | 28533 ft | 415 kts | 200° |
| 2026-05-03 20:23 | 51.39689 | 10.25396 | 27794 ft | 411 kts | 200° |
| 2026-05-03 20:23 | 51.36996 | 10.23928 | 27072 ft | 407 kts | 200° |
| 2026-05-03 20:24 | 51.34270 | 10.22750 | 26351 ft | 405 kts | 195° |
| 2026-05-03 20:24 | 51.31612 | 10.21409 | 25639 ft | 399 kts | 205° |
| 2026-05-03 20:24 | 51.29106 | 10.19549 | 24956 ft | 395 kts | 206° |
| 2026-05-03 20:24 | 51.26624 | 10.17684 | 24306 ft | 392 kts | 207° |
| 2026-05-03 20:25 | 51.24171 | 10.15824 | 23655 ft | 389 kts | 207° |
| 2026-05-03 20:25 | 51.21735 | 10.13968 | 22945 ft | 386 kts | 207° |
| 2026-05-03 20:25 | 51.19323 | 10.12126 | 22236 ft | 382 kts | 207° |
| 2026-05-03 20:25 | 51.16971 | 10.10330 | 21550 ft | 378 kts | 207° |
| 2026-05-03 20:26 | 51.14605 | 10.08525 | 20861 ft | 375 kts | 207° |
| 2026-05-03 20:26 | 51.12261 | 10.06739 | 20178 ft | 372 kts | 207° |
| 2026-05-03 20:26 | 51.09933 | 10.04968 | 19544 ft | 369 kts | 207° |
| 2026-05-03 20:26 | 51.07624 | 10.03214 | 18909 ft | 366 kts | 207° |
| 2026-05-03 20:27 | 51.05331 | 10.01474 | 18294 ft | 364 kts | 207° |
| 2026-05-03 20:27 | 51.03057 | 9.99750 | 17632 ft | 360 kts | 207° |
| 2026-05-03 20:27 | 51.00814 | 9.98050 | 17006 ft | 355 kts | 207° |
| 2026-05-03 20:27 | 50.98602 | 9.96376 | 16328 ft | 349 kts | 207° |
| 2026-05-03 20:28 | 50.96425 | 9.94731 | 15445 ft | 344 kts | 207° |
| 2026-05-03 20:28 | 50.94280 | 9.93112 | 14537 ft | 342 kts | 207° |
| 2026-05-03 20:28 | 50.92120 | 9.91483 | 13873 ft | 343 kts | 207° |
| 2026-05-03 20:28 | 50.89978 | 9.89869 | 13270 ft | 339 kts | 207° |
| 2026-05-03 20:29 | 50.87863 | 9.88277 | 12731 ft | 333 kts | 207° |
| 2026-05-03 20:29 | 50.85787 | 9.86717 | 12186 ft | 328 kts | 207° |
| 2026-05-03 20:29 | 50.83739 | 9.85178 | 11637 ft | 324 kts | 207° |
| 2026-05-03 20:29 | 50.81715 | 9.83659 | 11173 ft | 318 kts | 207° |
| 2026-05-03 20:30 | 50.79719 | 9.82163 | 11007 ft | 319 kts | 207° |
| 2026-05-03 20:30 | 50.77709 | 9.80656 | 10973 ft | 319 kts | 207° |
| 2026-05-03 20:30 | 50.75745 | 9.79187 | 10969 ft | 303 kts | 207° |
| 2026-05-03 20:30 | 50.74504 | 9.78261 | 10970 ft | 291 kts | 207° |
| 2026-05-03 20:31 | 50.72162 | 9.76514 | 10967 ft | 267 kts | 207° |
| 2026-05-03 20:31 | 50.70482 | 9.75258 | 10970 ft | 271 kts | 207° |
| 2026-05-03 20:31 | 50.68785 | 9.73937 | 10965 ft | 269 kts | 213° |
| 2026-05-03 20:31 | 50.67830 | 9.72706 | 10970 ft | 268 kts | 226° |
| 2026-05-03 20:32 | 50.66583 | 9.70531 | 10970 ft | 268 kts | 227° |
| 2026-05-03 20:32 | 50.64941 | 9.67605 | 10970 ft | 268 kts | 228° |
| 2026-05-03 20:32 | 50.63711 | 9.65385 | 10974 ft | 269 kts | 228° |
| 2026-05-03 20:32 | 50.62482 | 9.63160 | 10972 ft | 269 kts | 228° |
| 2026-05-03 20:33 | 50.61254 | 9.60937 | 10969 ft | 269 kts | 228° |
| 2026-05-03 20:33 | 50.60426 | 9.59439 | 10973 ft | 269 kts | 228° |
| 2026-05-03 20:33 | 50.59195 | 9.57215 | 10969 ft | 269 kts | 228° |
| 2026-05-03 20:33 | 50.57984 | 9.55027 | 10970 ft | 269 kts | 228° |
| 2026-05-03 20:34 | 50.56741 | 9.52787 | 10840 ft | 267 kts | 228° |
| 2026-05-03 20:34 | 50.55542 | 9.50626 | 10517 ft | 265 kts | 228° |
| 2026-05-03 20:34 | 50.54335 | 9.48455 | 10170 ft | 262 kts | 228° |
| 2026-05-03 20:34 | 50.53134 | 9.46296 | 9783 ft | 260 kts | 228° |
| 2026-05-03 20:35 | 50.51945 | 9.44162 | 9352 ft | 258 kts | 228° |
| 2026-05-03 20:35 | 50.50771 | 9.42051 | 8955 ft | 255 kts | 228° |
| 2026-05-03 20:35 | 50.49606 | 9.39960 | 8510 ft | 253 kts | 228° |
| 2026-05-03 20:35 | 50.48455 | 9.37898 | 8158 ft | 249 kts | 228° |
| 2026-05-03 20:36 | 50.47309 | 9.35846 | 7997 ft | 248 kts | 228° |
| 2026-05-03 20:36 | 50.46157 | 9.33786 | 7957 ft | 251 kts | 228° |
| 2026-05-03 20:36 | 50.45013 | 9.31740 | 7964 ft | 250 kts | 228° |
| 2026-05-03 20:36 | 50.43882 | 9.29717 | 7952 ft | 251 kts | 228° |
| 2026-05-03 20:37 | 50.42730 | 9.27661 | 7958 ft | 251 kts | 228° |
| 2026-05-03 20:37 | 50.41615 | 9.25486 | 7958 ft | 260 kts | 235° |
| 2026-05-03 20:37 | 50.40748 | 9.23016 | 7955 ft | 259 kts | 244° |
| 2026-05-03 20:37 | 50.40122 | 9.20355 | 7951 ft | 260 kts | 248° |
| 2026-05-03 20:38 | 50.39519 | 9.17698 | 7875 ft | 257 kts | 248° |
| 2026-05-03 20:38 | 50.38926 | 9.15123 | 7774 ft | 244 kts | 248° |
| 2026-05-03 20:38 | 50.38369 | 9.12708 | 7646 ft | 227 kts | 248° |
| 2026-05-03 20:38 | 50.37838 | 9.10423 | 7433 ft | 221 kts | 247° |
| 2026-05-03 20:39 | 50.37315 | 9.08176 | 7158 ft | 218 kts | 247° |
| 2026-05-03 20:39 | 50.36566 | 9.06193 | 6984 ft | 212 kts | 221° |
| 2026-05-03 20:39 | 50.35212 | 9.05194 | 6955 ft | 222 kts | 191° |
| 2026-05-03 20:39 | 50.33661 | 9.05417 | 6961 ft | 228 kts | 174° |
| 2026-05-03 20:40 | 50.32114 | 9.05943 | 6930 ft | 226 kts | 173° |
| 2026-05-03 20:40 | 50.30581 | 9.06467 | 6704 ft | 226 kts | 173° |
| 2026-05-03 20:40 | 50.29045 | 9.06994 | 6420 ft | 225 kts | 174° |
| 2026-05-03 20:40 | 50.27531 | 9.07527 | 6096 ft | 224 kts | 173° |
| 2026-05-03 20:41 | 50.26010 | 9.08062 | 5792 ft | 223 kts | 173° |
| 2026-05-03 20:41 | 50.24498 | 9.08595 | 5465 ft | 223 kts | 173° |
| 2026-05-03 20:41 | 50.22983 | 9.09118 | 5236 ft | 219 kts | 173° |
| 2026-05-03 20:41 | 50.21523 | 9.09616 | 5067 ft | 211 kts | 178° |
| 2026-05-03 20:42 | 50.20147 | 9.09314 | 4967 ft | 200 kts | 211° |
| 2026-05-03 20:42 | 50.19051 | 9.07960 | 4959 ft | 200 kts | 223° |
| 2026-05-03 20:42 | 50.18026 | 9.06512 | 4963 ft | 199 kts | 224° |
| 2026-05-03 20:42 | 50.17086 | 9.04924 | 4966 ft | 201 kts | 236° |
| 2026-05-03 20:43 | 50.16425 | 9.03006 | 4964 ft | 201 kts | 245° |
| 2026-05-03 20:43 | 50.15918 | 9.00975 | 4970 ft | 201 kts | 248° |
| 2026-05-03 20:43 | 50.15441 | 8.98933 | 4971 ft | 200 kts | 248° |
| 2026-05-03 20:43 | 50.14957 | 8.96901 | 4973 ft | 201 kts | 248° |
| 2026-05-03 20:44 | 50.14473 | 8.94863 | 4972 ft | 200 kts | 248° |
| 2026-05-03 20:44 | 50.13987 | 8.92822 | 4974 ft | 202 kts | 248° |
| 2026-05-03 20:44 | 50.13507 | 8.90803 | 4974 ft | 191 kts | 248° |
| 2026-05-03 20:44 | 50.13064 | 8.88938 | 4974 ft | 175 kts | 248° |
| 2026-05-03 20:45 | 50.12658 | 8.87229 | 5020 ft | 165 kts | 247° |
| 2026-05-03 20:45 | 50.12252 | 8.85535 | 4918 ft | 169 kts | 248° |
| 2026-05-03 20:45 | 50.11842 | 8.83813 | 4693 ft | 169 kts | 248° |
| 2026-05-03 20:45 | 50.11434 | 8.82097 | 4456 ft | 168 kts | 248° |
| 2026-05-03 20:46 | 50.11032 | 8.80410 | 4218 ft | 166 kts | 248° |
| 2026-05-03 20:46 | 50.10628 | 8.78715 | 3984 ft | 167 kts | 248° |
| 2026-05-03 20:46 | 50.10229 | 8.77039 | 3756 ft | 167 kts | 249° |
| 2026-05-03 20:46 | 50.09819 | 8.75320 | 3512 ft | 167 kts | 249° |
| 2026-05-03 20:47 | 50.09415 | 8.73626 | 3283 ft | 167 kts | 249° |
| 2026-05-03 20:47 | 50.09009 | 8.71923 | 3046 ft | 168 kts | 250° |
| 2026-05-03 20:47 | 50.08611 | 8.70251 | 2809 ft | 168 kts | 250° |
| 2026-05-03 20:47 | 50.08204 | 8.68541 | 2567 ft | 167 kts | 249° |
| 2026-05-03 20:48 | 50.07803 | 8.66863 | 2340 ft | 169 kts | 249° |
| 2026-05-03 20:48 | 50.07394 | 8.65146 | 2093 ft | 169 kts | 249° |
| 2026-05-03 20:48 | 50.06980 | 8.63412 | 1851 ft | 172 kts | 250° |
| 2026-05-03 20:48 | 50.06563 | 8.61665 | 1605 ft | 170 kts | 249° |
| 2026-05-03 20:49 | 50.06178 | 8.60050 | 1375 ft | 150 kts | 249° |
| 2026-05-03 20:49 | 50.05815 | 8.58528 | 1160 ft | 149 kts | 249° |
| 2026-05-03 20:49 | 50.05471 | 8.57092 | 945 ft | 134 kts | 248° |
| 2026-05-03 20:49 | 50.05151 | 8.55747 | 754 ft | 134 kts | 248° |
| 2026-05-03 20:50 | 50.04825 | 8.54386 | 564 ft | 134 kts | 248° |
| 2026-05-03 20:50 | 50.04517 | 8.53076 | 392 ft | 122 kts | 249° |
| 2026-05-03 20:50 | 50.04250 | 8.52003 | 364 ft | 80 kts | 249° |
| 2026-05-03 20:50 | 50.04122 | 8.51483 | 362 ft | 24 kts | 250° |
| 2026-05-03 20:51 | 50.04044 | 8.51169 | 351 ft | 34 kts | 241° |
| 2026-05-03 20:51 | 50.03935 | 8.50959 | 344 ft | 19 kts | 219° |
| 2026-05-03 20:51 | 50.03831 | 8.50840 | 347 ft | 13 kts | 194° |
| 2026-05-03 20:51 | 50.03783 | 8.50923 | 346 ft | 13 kts | 75° |
| 2026-05-03 20:52 | 50.03817 | 8.51074 | 352 ft | 16 kts | 70° |
| 2026-05-03 20:52 | 50.03859 | 8.51250 | 352 ft | 19 kts | 70° |
| 2026-05-03 20:52 | 50.03913 | 8.51483 | 354 ft | 25 kts | 70° |
| 2026-05-03 20:52 | 50.03977 | 8.51755 | 353 ft | 28 kts | 70° |
| 2026-05-03 20:53 | 50.04048 | 8.52044 | 356 ft | 30 kts | 68° |
| 2026-05-03 20:53 | 50.04109 | 8.52294 | 362 ft | 20 kts | 68° |
| 2026-05-03 20:53 | 50.04164 | 8.52510 | 358 ft | 23 kts | 72° |
| 2026-05-03 20:53 | 50.04217 | 8.52747 | 367 ft | 24 kts | 75° |
| 2026-05-03 20:54 | 50.04273 | 8.52986 | 370 ft | 23 kts | 69° |
| 2026-05-03 20:54 | 50.04393 | 8.53483 | 375 ft | 26 kts | 77° |
| 2026-05-03 20:54 | 50.04414 | 8.53784 | 373 ft | 30 kts | 85° |
| 2026-05-03 20:55 | 50.04436 | 8.54100 | 377 ft | 31 kts | 83° |
| 2026-05-03 20:55 | 50.04453 | 8.54419 | 348 ft | 34 kts | 88° |
| 2026-05-03 20:55 | 50.04417 | 8.54626 | 349 ft | 0 kts | 122° |
| 2026-05-03 20:55 | 50.04399 | 8.54663 | 358 ft | 9 kts | 130° |
| 2026-05-03 20:56 | 50.04311 | 8.54771 | 356 ft | 19 kts | 154° |
| 2026-05-03 20:56 | 50.04198 | 8.54837 | 355 ft | 18 kts | 161° |
| 2026-05-03 20:56 | 50.04070 | 8.54914 | 358 ft | 20 kts | 161° |
| 2026-05-03 20:56 | 50.04021 | 8.55024 | 360 ft | 14 kts | 77° |
| 2026-05-03 20:57 | 50.04057 | 8.55181 | 363 ft | 17 kts | 70° |
| 2026-05-03 20:57 | 50.04106 | 8.55374 | 362 ft | 22 kts | 71° |
| 2026-05-03 20:57 | 50.04162 | 8.55619 | 358 ft | 26 kts | 71° |
| 2026-05-03 20:57 | 50.04204 | 8.55794 | 356 ft | 16 kts | 69° |
| 2026-05-03 20:58 | 50.04249 | 8.55977 | 355 ft | 20 kts | 70° |
| 2026-05-03 20:58 | 50.04311 | 8.56070 | 352 ft | 12 kts | 354° |
| 2026-05-03 20:58 | 50.04395 | 8.56033 | 359 ft | 13 kts | 353° |
| 2026-05-03 20:58 | 50.04455 | 8.56125 | 356 ft | 14 kts | 70° |
| 2026-05-03 20:59 | 50.04493 | 8.56287 | 356 ft | 18 kts | 70° |
| 2026-05-03 20:59 | 50.04521 | 8.56408 | 358 ft | 3 kts | 74° |
| 2026-05-03 20:59 | 50.04517 | 8.56457 | 353 ft | 7 kts | 121° |
| 2026-05-03 20:59 | 50.04495 | 8.56468 | 354 ft | 4 kts | 166° |
| 2026-05-03 21:00 | 50.04478 | 8.56478 | 351 ft | 3 kts | 159° |
| 2026-05-03 21:00 | 50.04477 | 8.56479 | 359 ft | 2 kts | 159° |
| 2026-05-03 21:00 | 50.04474 | 8.56481 | 359 ft | 0 kts | 159° |